createdAt,value
2018-02-01T00:00:10.224Z,8.02
2018-02-01T00:02:41.856Z,10.08
2018-02-01T00:05:12.778Z,40.12
2018-02-01T00:07:44.136Z,83.94
2018-02-01T00:10:15.013Z,30.37
2018-02-01T00:12:45.909Z,52.08
2018-02-01T00:15:16.851Z,20.23
2018-02-01T00:17:48.168Z,30.62
2018-02-01T00:20:18.582Z,19.30
2018-02-01T00:22:49.188Z,67.95
2018-02-01T00:25:19.883Z,14.45
2018-02-01T00:27:50.734Z,13.73
2018-02-01T00:30:21.717Z,23.08
2018-02-01T00:32:52.645Z,10.43
2018-02-01T00:35:23.720Z,7.62
2018-02-01T00:37:54.849Z,10.80
2018-02-01T00:40:25.867Z,8.05
2018-02-01T00:42:57.340Z,9.10
2018-02-01T00:45:27.816Z,6.68
2018-02-01T00:47:57.765Z,7.50
2018-02-01T00:50:28.652Z,8.25
2018-02-01T00:53:00.067Z,11.82
2018-02-01T00:55:30.948Z,9.27
2018-02-01T00:58:02.510Z,8.56
2018-02-01T01:00:32.355Z,9.95
2018-02-01T01:03:03.060Z,7.68
2018-02-01T01:05:34.025Z,8.02
2018-02-01T01:08:05.323Z,7.26
2018-02-01T01:10:36.180Z,7.60
2018-02-01T01:13:06.837Z,8.15
2018-02-01T01:15:37.751Z,7.50
2018-02-01T01:18:08.563Z,10.10
2018-02-01T01:20:39.958Z,8.68
2018-02-01T01:23:10.435Z,8.42
2018-02-01T01:25:41.008Z,7.22
2018-02-01T01:28:11.811Z,7.87
2018-02-01T01:30:42.741Z,12.63
2018-02-01T01:33:13.586Z,7.00
2018-02-01T01:35:48.032Z,9.06
2018-02-01T01:38:17.178Z,8.93
2018-02-01T01:40:47.693Z,7.14
2018-02-01T01:43:17.287Z,8.80
2018-02-01T01:45:58.950Z,9.00
2018-02-01T01:48:28.195Z,9.95
2018-02-01T01:50:57.470Z,8.25
2018-02-01T01:53:27.269Z,9.45
2018-02-01T01:55:56.424Z,8.55
2018-02-01T01:58:25.593Z,7.23
2018-02-01T02:00:54.804Z,8.98
2018-02-01T02:03:23.890Z,8.57
2018-02-01T02:05:54.495Z,9.48
2018-02-01T02:08:24.846Z,10.35
2018-02-01T02:10:56.032Z,9.30
2018-02-01T02:13:26.778Z,10.25
2018-02-01T02:15:57.662Z,11.45
2018-02-01T02:18:29.191Z,9.30
2018-02-01T02:20:59.766Z,8.75
2018-02-01T02:23:30.624Z,10.30
2018-02-01T02:26:01.211Z,9.38
2018-02-01T02:28:31.847Z,11.43
2018-02-01T02:31:02.793Z,8.82
2018-02-01T02:33:33.639Z,10.65
2018-02-01T02:36:05.025Z,10.58
2018-02-01T02:38:35.943Z,10.77
2018-02-01T02:41:06.843Z,10.07
2018-02-01T02:43:37.694Z,11.18
2018-02-01T02:46:08.675Z,10.18
2018-02-01T02:48:39.248Z,11.08
2018-02-01T02:51:09.976Z,11.12
2018-02-01T02:53:40.943Z,10.05
2018-02-01T02:56:12.164Z,10.43
2018-02-01T02:58:42.564Z,9.75
2018-02-01T03:01:11.991Z,10.18
2018-02-01T03:03:43.140Z,11.38
2018-02-01T03:06:14.579Z,10.36
2018-02-01T03:08:44.851Z,10.63
2018-02-01T03:11:15.722Z,11.07
2018-02-01T03:13:47.167Z,11.90
2018-02-01T03:16:18.162Z,10.40
2018-02-01T03:18:49.065Z,10.57
2018-02-01T03:21:20.470Z,12.42
2018-02-01T03:23:51.310Z,12.02
2018-02-01T03:26:22.285Z,13.62
2018-02-01T03:28:53.270Z,12.06
2018-02-01T03:31:24.288Z,11.02
2018-02-01T03:33:55.080Z,10.90
2018-02-01T03:36:26.428Z,12.74
2018-02-01T03:38:57.137Z,12.30
2018-02-01T03:41:28.588Z,13.18
2018-02-01T03:43:59.099Z,11.38
2018-02-01T03:46:29.017Z,11.65
2018-02-01T03:49:00.672Z,14.10
2018-02-01T03:51:31.275Z,12.43
2018-02-01T03:54:02.718Z,12.86
2018-02-01T03:56:34.335Z,12.36
2018-02-01T03:59:04.874Z,14.38
2018-02-01T04:01:35.175Z,11.70
2018-02-01T04:04:05.512Z,12.10
2018-02-01T04:06:36.185Z,14.00
2018-02-01T04:09:07.212Z,15.60
2018-02-01T04:11:38.183Z,15.10
2018-02-01T04:14:09.067Z,17.10
2018-02-01T04:16:38.993Z,14.35
2018-02-01T04:19:10.479Z,12.98
2018-02-01T04:21:41.302Z,12.80
2018-02-01T04:24:12.107Z,12.43
2018-02-01T04:26:43.614Z,13.68
2018-02-01T04:29:15.508Z,14.40
2018-02-01T04:31:47.339Z,14.40
2018-02-01T04:34:17.877Z,15.65
2018-02-01T04:36:47.758Z,13.80
2018-02-01T04:39:18.408Z,13.57
2018-02-01T04:41:49.551Z,15.70
2018-02-01T04:44:20.313Z,11.85
2018-02-01T04:46:52.108Z,15.00
2018-02-01T04:49:22.859Z,13.50
2018-02-01T04:51:53.547Z,16.17
2018-02-01T04:54:24.202Z,15.18
2018-02-01T04:56:55.520Z,14.84
2018-02-01T04:59:27.650Z,14.34
2018-02-01T05:01:59.058Z,15.38
2018-02-01T05:04:29.848Z,17.02
2018-02-01T05:07:01.457Z,13.48
2018-02-01T05:09:31.852Z,15.13
2018-02-01T05:12:02.407Z,15.98
2018-02-01T05:14:33.303Z,17.15
2018-02-01T05:17:03.398Z,14.23
2018-02-01T05:19:33.876Z,15.93
2018-02-01T05:22:04.758Z,14.70
2018-02-01T05:24:35.312Z,16.20
2018-02-01T05:27:05.958Z,14.70
2018-02-01T05:29:36.597Z,13.82
2018-02-01T05:32:07.927Z,17.40
2018-02-01T05:34:38.768Z,17.37
2018-02-01T05:37:09.720Z,17.65
2018-02-01T05:39:40.565Z,16.02
2018-02-01T05:42:11.946Z,15.82
2018-02-01T05:44:42.833Z,17.02
2018-02-01T05:47:13.775Z,18.62
2018-02-01T05:49:44.731Z,17.85
2018-02-01T05:52:15.875Z,16.83
2018-02-01T05:54:49.368Z,52.55
2018-02-01T05:57:18.729Z,88.83
2018-02-01T05:59:48.281Z,96.40
2018-02-01T06:02:19.010Z,115.40
2018-02-01T06:04:49.501Z,50.08
2018-02-01T06:07:20.004Z,24.02
2018-02-01T06:09:50.830Z,37.25
2018-02-01T06:12:23.910Z,19.05
2018-02-01T06:14:53.025Z,28.75
2018-02-01T06:17:23.489Z,25.20
2018-02-01T06:19:53.361Z,27.70
2018-02-01T06:22:24.038Z,17.83
2018-02-01T06:24:54.912Z,22.60
2018-02-01T06:27:25.635Z,23.68
2018-02-01T06:29:55.936Z,24.33
2018-02-01T06:32:26.844Z,22.52
2018-02-01T06:34:57.358Z,20.34
2018-02-01T06:37:28.245Z,18.67
2018-02-01T06:39:59.148Z,17.35
2018-02-01T06:42:29.971Z,18.90
2018-02-01T06:45:00.821Z,18.75
2018-02-01T06:47:31.754Z,21.75
2018-02-01T06:50:02.703Z,19.35
2018-02-01T06:52:35.191Z,17.90
2018-02-01T06:55:05.676Z,17.78
2018-02-01T06:57:36.305Z,21.44
2018-02-01T07:00:06.968Z,23.02
2018-02-01T07:02:37.963Z,23.62
2018-02-01T07:05:09.279Z,20.00
2018-02-01T07:07:40.482Z,21.02
2018-02-01T07:10:10.890Z,19.33
2018-02-01T07:12:41.840Z,37.05
2018-02-01T07:15:12.671Z,47.95
2018-02-01T07:17:43.650Z,32.13
2018-02-01T07:20:14.551Z,24.02
2018-02-01T07:22:45.927Z,20.86
2018-02-01T07:25:16.876Z,19.75
2018-02-01T07:27:48.335Z,26.92
2018-02-01T07:30:18.869Z,27.10
2018-02-01T07:32:49.482Z,20.52
2018-02-01T07:35:20.923Z,18.56
2018-02-01T07:37:52.006Z,20.95
2018-02-01T07:40:23.397Z,18.06
2018-02-01T07:42:53.990Z,19.08
2018-02-01T07:45:25.246Z,24.27
2018-02-01T07:47:55.971Z,17.35
2018-02-01T07:50:26.840Z,19.15
2018-02-01T07:52:57.756Z,18.33
2018-02-01T07:55:28.101Z,17.60
2018-02-01T07:57:58.860Z,21.35
2018-02-01T08:00:30.219Z,19.56
2018-02-01T08:03:00.869Z,20.60
2018-02-01T08:05:31.777Z,20.90
2018-02-01T08:08:03.040Z,21.98
2018-02-01T08:10:33.908Z,22.42
2018-02-01T08:13:04.481Z,22.35
2018-02-01T08:15:34.783Z,23.40
2018-02-01T08:18:05.715Z,20.80
2018-02-01T08:20:36.096Z,20.23
2018-02-01T08:23:06.263Z,22.23
2018-02-01T08:25:37.204Z,25.00
2018-02-01T08:28:08.198Z,35.50
2018-02-01T08:30:39.042Z,31.85
2018-02-01T08:33:10.467Z,40.94
2018-02-01T08:35:41.104Z,68.68
2018-02-01T08:38:12.482Z,20.92
2018-02-01T08:40:43.161Z,22.83
2018-02-01T08:43:14.482Z,21.72
2018-02-01T08:45:45.295Z,33.53
2018-02-01T08:48:16.152Z,19.55
2018-02-01T08:50:47.442Z,20.98
2018-02-01T08:53:18.171Z,20.45
2018-02-01T08:55:49.416Z,23.84
2018-02-01T08:58:20.143Z,23.15
2018-02-01T09:00:51.387Z,24.18
2018-02-01T09:03:22.927Z,20.86
2018-02-01T09:05:53.136Z,20.65
2018-02-01T09:08:23.245Z,21.60
2018-02-01T09:10:53.875Z,22.92
2018-02-01T09:13:25.508Z,19.24
2018-02-01T09:15:56.164Z,18.83
2018-02-01T09:18:27.231Z,21.25
2018-02-01T09:20:58.196Z,19.17
2018-02-01T09:23:29.689Z,20.38
2018-02-01T09:25:59.594Z,18.33
2018-02-01T09:28:28.732Z,19.73
2018-02-01T09:30:57.565Z,25.17
2018-02-01T09:33:26.771Z,23.08
2018-02-01T09:35:55.891Z,23.73
2018-02-01T09:38:24.831Z,28.17
2018-02-01T09:40:53.990Z,28.65
2018-02-01T09:43:22.903Z,24.07
2018-02-01T09:45:51.752Z,28.47
2018-02-01T09:48:21.196Z,24.27
2018-02-01T09:50:50.015Z,26.83
2018-02-01T09:53:18.860Z,29.13
2018-02-01T09:55:47.845Z,23.57
2018-02-01T09:58:16.719Z,29.00
2018-02-01T10:00:45.796Z,22.07
2018-02-01T10:03:14.992Z,25.20
2018-02-01T10:05:43.806Z,23.20
2018-02-01T10:08:12.604Z,19.20
2018-02-01T10:10:41.859Z,16.45
2018-02-01T10:13:10.367Z,18.90
2018-02-01T10:15:39.120Z,19.40
2018-02-01T10:18:09.409Z,14.30
2018-02-01T10:20:38.326Z,26.53
2018-02-01T10:23:07.286Z,19.27
2018-02-01T10:25:36.114Z,10.40
2018-02-01T10:28:04.907Z,12.43
2018-02-01T10:30:33.937Z,8.73
2018-02-01T10:33:02.618Z,10.17
2018-02-01T10:35:31.726Z,11.30
2018-02-01T10:38:00.639Z,15.23
2018-02-01T10:40:29.797Z,19.17
2018-02-01T10:42:58.967Z,17.70
2018-02-01T10:45:28.936Z,20.00
2018-02-01T10:47:57.893Z,19.27
2018-02-01T10:50:26.789Z,23.33
2018-02-01T10:52:55.911Z,24.10
2018-02-01T10:55:24.955Z,16.37
2018-02-01T10:57:53.769Z,21.33
2018-02-01T11:00:22.935Z,16.67
2018-02-01T11:02:51.894Z,15.23
2018-02-01T11:05:20.797Z,12.03
2018-02-01T11:07:50.322Z,8.30
2018-02-01T11:10:19.125Z,6.97
2018-02-01T11:12:47.912Z,5.83
2018-02-01T11:15:16.776Z,6.13
2018-02-01T11:17:45.773Z,4.83
2018-02-01T11:20:14.691Z,6.50
2018-02-01T11:22:43.802Z,7.27
2018-02-01T11:25:12.838Z,6.17
2018-02-01T11:27:41.681Z,6.77
2018-02-01T11:30:10.809Z,7.77
2018-02-01T11:32:39.614Z,8.10
2018-02-01T11:35:08.687Z,6.20
2018-02-01T11:37:37.774Z,10.13
2018-02-01T11:40:06.705Z,12.00
2018-02-01T11:42:35.721Z,7.50
2018-02-01T11:45:04.727Z,10.77
2018-02-01T11:47:33.758Z,17.13
2018-02-01T11:50:02.705Z,12.03
2018-02-01T11:52:31.868Z,11.27
2018-02-01T11:55:00.723Z,16.67
2018-02-01T11:57:29.675Z,13.00
2018-02-01T11:59:58.911Z,9.10
2018-02-01T12:02:27.428Z,6.50
2018-02-01T12:04:56.632Z,9.23
2018-02-01T12:07:25.243Z,23.40
2018-02-01T12:09:54.081Z,10.30
2018-02-01T12:12:22.872Z,7.73
2018-02-01T12:14:51.746Z,7.57
2018-02-01T12:17:20.840Z,12.90
2018-02-01T12:19:49.663Z,17.23
2018-02-01T12:22:18.937Z,21.45
2018-02-01T12:24:48.147Z,27.92
2018-02-01T12:27:17.317Z,9.75
2018-02-01T12:29:46.484Z,8.85
2018-02-01T12:32:15.589Z,35.57
2018-02-01T12:34:45.077Z,58.13
2018-02-01T12:37:14.309Z,34.88
2018-02-01T12:39:43.425Z,17.37
2018-02-01T12:42:13.192Z,12.05
2018-02-01T12:44:43.990Z,9.82
2018-02-01T12:47:14.801Z,10.02
2018-02-01T12:49:45.127Z,10.40
2018-02-01T12:52:17.118Z,8.55
2018-02-01T12:54:47.830Z,5.20
2018-02-01T12:57:18.610Z,6.85
2018-02-01T12:59:49.882Z,7.42
2018-02-01T13:02:20.313Z,9.14
2018-02-01T13:04:50.912Z,9.27
2018-02-01T13:07:21.759Z,7.25
2018-02-01T13:09:52.620Z,7.78
2018-02-01T13:12:23.551Z,8.10
2018-02-01T13:14:54.816Z,8.00
2018-02-01T13:17:25.917Z,7.72
2018-02-01T13:19:56.383Z,11.40
2018-02-01T13:22:27.329Z,7.75
2018-02-01T13:24:57.916Z,11.00
2018-02-01T13:27:28.778Z,6.72
2018-02-01T13:29:59.647Z,9.25
2018-02-01T13:32:30.612Z,10.13
2018-02-01T13:35:02.556Z,9.98
2018-02-01T13:37:33.289Z,7.68
2018-02-01T13:40:03.884Z,10.18
2018-02-01T13:42:34.525Z,10.42
2018-02-01T13:45:04.811Z,12.45
2018-02-01T13:47:35.403Z,9.50
2018-02-01T13:50:06.841Z,9.10
2018-02-01T13:52:37.724Z,10.00
2018-02-01T13:55:08.607Z,10.52
2018-02-01T13:57:38.458Z,8.43
2018-02-01T14:00:09.176Z,9.18
2018-02-01T14:02:40.506Z,8.92
2018-02-01T14:05:11.161Z,10.38
2018-02-01T14:07:42.493Z,5.92
2018-02-01T14:10:13.176Z,7.55
2018-02-01T14:12:45.409Z,8.83
2018-02-01T14:15:15.968Z,11.65
2018-02-01T14:17:46.920Z,6.78
2018-02-01T14:20:17.826Z,6.68
2018-02-01T14:22:48.388Z,5.93
2018-02-01T14:25:19.929Z,7.10
2018-02-01T14:27:50.719Z,6.75
2018-02-01T14:30:21.595Z,11.75
2018-02-01T14:32:52.838Z,10.68
2018-02-01T14:35:24.138Z,10.82
2018-02-01T14:37:55.760Z,8.07
2018-02-01T14:40:27.598Z,9.98
2018-02-01T14:42:57.094Z,8.68
2018-02-01T14:45:27.811Z,6.75
2018-02-01T14:47:59.090Z,8.38
2018-02-01T14:50:30.027Z,8.38
2018-02-01T14:53:00.871Z,12.40
2018-02-01T14:55:34.169Z,9.48
2018-02-01T14:58:03.342Z,12.73
2018-02-01T15:00:33.568Z,12.48
2018-02-01T15:03:03.903Z,14.30
2018-02-01T15:05:34.922Z,14.35
2018-02-01T15:08:05.773Z,59.85
2018-02-01T15:10:35.718Z,179.28
2018-02-01T15:13:06.593Z,199.57
2018-02-01T15:15:37.949Z,29.92
2018-02-01T15:18:08.942Z,17.90
2018-02-01T15:20:40.034Z,26.05
2018-02-01T15:23:11.272Z,16.75
2018-02-01T15:25:41.913Z,16.40
2018-02-01T15:28:12.749Z,19.98
2018-02-01T15:30:43.677Z,22.65
2018-02-01T15:33:14.698Z,40.42
2018-02-01T15:35:45.551Z,46.97
2018-02-01T15:38:16.006Z,72.93
2018-02-01T15:40:46.904Z,59.05
2018-02-01T15:43:17.870Z,47.45
2018-02-01T15:45:48.823Z,47.15
2018-02-01T15:48:19.746Z,46.75
2018-02-01T15:50:50.798Z,52.38
2018-02-01T15:53:21.352Z,44.98
2018-02-01T15:55:52.012Z,56.55
2018-02-01T15:58:22.840Z,27.73
2018-02-01T16:00:53.850Z,34.25
2018-02-01T16:03:24.711Z,71.95
2018-02-01T16:05:55.942Z,109.35
2018-02-01T16:08:26.787Z,129.15
2018-02-01T16:10:57.818Z,128.82
2018-02-01T16:13:28.681Z,103.20
2018-02-01T16:16:00.042Z,73.28
2018-02-01T16:18:30.913Z,78.53
2018-02-01T16:21:01.815Z,77.25
2018-02-01T16:23:32.698Z,352.23
2018-02-01T16:26:03.680Z,518.53
2018-02-01T16:28:34.929Z,378.76
2018-02-01T16:31:06.045Z,154.80
2018-02-01T16:33:36.931Z,108.60
2018-02-01T16:36:07.841Z,52.60
2018-02-01T16:38:38.740Z,21.77
2018-02-01T16:41:10.901Z,14.96
2018-02-01T16:43:40.426Z,12.27
2018-02-01T16:46:11.081Z,17.62
2018-02-01T16:48:41.957Z,15.52
2018-02-01T16:51:12.680Z,15.66
2018-02-01T16:53:43.295Z,11.22
2018-02-01T16:56:13.920Z,11.98
2018-02-01T16:58:44.655Z,12.77
2018-02-01T17:01:15.507Z,15.64
2018-02-01T17:03:45.940Z,14.75
2018-02-01T17:06:17.075Z,34.08
2018-02-01T17:08:47.603Z,70.42
2018-02-01T17:11:18.231Z,124.68
2018-02-01T17:13:49.705Z,56.08
2018-02-01T17:16:20.576Z,54.04
2018-02-01T17:18:51.083Z,33.34
2018-02-01T17:21:23.577Z,24.07
2018-02-01T17:23:53.303Z,21.98
2018-02-01T17:26:23.975Z,22.67
2018-02-01T17:28:54.826Z,22.98
2018-02-01T17:31:25.317Z,23.25
2018-02-01T17:33:56.826Z,23.52
2018-02-01T17:36:27.701Z,25.33
2018-02-01T17:38:59.244Z,30.06
2018-02-01T17:41:29.947Z,27.27
2018-02-01T17:44:00.855Z,28.87
2018-02-01T17:46:31.780Z,31.92
2018-02-01T17:49:05.079Z,40.88
2018-02-01T17:51:34.667Z,32.45
2018-02-01T17:54:05.306Z,221.80
2018-02-01T17:56:36.039Z,343.15
2018-02-01T17:59:06.860Z,148.32
2018-02-01T18:01:37.843Z,54.33
2018-02-01T18:04:09.072Z,29.24
2018-02-01T18:06:39.853Z,41.85
2018-02-01T18:09:10.349Z,48.42
2018-02-01T18:11:41.912Z,78.08
2018-02-01T18:14:12.779Z,45.50
2018-02-01T18:16:43.630Z,50.22
2018-02-01T18:19:14.577Z,50.58
2018-02-01T18:21:45.602Z,106.75
2018-02-01T18:24:16.844Z,77.52
2018-02-01T18:26:47.743Z,61.75
2018-02-01T18:29:18.597Z,37.58
2018-02-01T18:31:51.790Z,50.28
2018-02-01T18:34:21.642Z,110.12
2018-02-01T18:36:52.014Z,95.80
2018-02-01T18:39:23.159Z,147.80
2018-02-01T18:41:54.061Z,130.32
2018-02-01T18:44:24.870Z,101.57
2018-02-01T18:46:55.725Z,84.45
2018-02-01T18:49:26.542Z,175.52
2018-02-01T18:51:57.766Z,104.04
2018-02-01T18:54:28.461Z,61.16
2018-02-01T18:57:05.421Z,90.68
2018-02-01T19:02:35.711Z,77.40
2018-02-01T19:05:05.042Z,76.70
2018-02-01T19:07:33.910Z,37.83
2018-02-01T19:10:02.897Z,41.93
2018-02-01T19:12:32.210Z,46.45
2018-02-01T19:15:01.059Z,48.37
2018-02-01T19:17:29.923Z,41.00
2018-02-01T19:19:58.771Z,41.03
2018-02-01T19:22:27.632Z,54.73
2018-02-01T19:24:56.761Z,71.53
2018-02-01T19:27:26.157Z,31.70
2018-02-01T19:29:54.880Z,28.45
2018-02-01T19:32:24.119Z,27.75
2018-02-01T19:34:53.395Z,25.75
2018-02-01T19:37:22.508Z,139.02
2018-02-01T19:39:51.688Z,180.60
2018-02-01T19:42:20.887Z,204.32
2018-02-01T19:44:50.000Z,81.47
2018-02-01T19:47:19.122Z,147.85
2018-02-01T19:49:49.763Z,130.93
2018-02-01T19:52:20.527Z,75.82
2018-02-01T19:54:50.962Z,88.53
2018-02-01T19:57:22.119Z,60.05
2018-02-01T19:59:53.247Z,38.08
2018-02-01T20:02:24.142Z,41.42
2018-02-01T20:04:54.823Z,37.70
2018-02-01T20:07:25.722Z,37.10
2018-02-01T20:09:56.648Z,33.58
2018-02-01T20:12:27.761Z,32.55
2018-02-01T20:14:58.631Z,36.03
2018-02-01T20:17:29.676Z,32.53
2018-02-01T20:20:01.108Z,64.90
2018-02-01T20:22:32.899Z,60.56
2018-02-01T20:25:05.424Z,74.53
2018-02-01T20:27:34.693Z,83.15
2018-02-01T20:30:05.519Z,61.55
2018-02-01T20:32:35.456Z,52.50
2018-02-01T20:35:05.792Z,64.70
2018-02-01T20:37:37.261Z,62.38
2018-02-01T20:40:08.140Z,70.10
2018-02-01T20:42:38.935Z,46.05
2018-02-01T20:45:09.821Z,35.33
2018-02-01T20:47:40.714Z,31.83
2018-02-01T20:50:11.670Z,35.80
2018-02-01T20:52:42.545Z,34.53
2018-02-01T20:55:13.892Z,43.56
2018-02-01T20:57:44.827Z,40.75
2018-02-01T21:00:15.563Z,38.28
2018-02-01T21:02:46.231Z,38.40
2018-02-01T21:05:21.477Z,42.13
2018-02-01T21:07:50.674Z,54.63
2018-02-01T21:10:19.949Z,57.28
2018-02-01T21:12:55.075Z,43.70
2018-02-01T21:15:24.407Z,43.67
2018-02-01T21:17:53.467Z,48.53
2018-02-01T21:20:23.348Z,49.92
2018-02-01T21:22:53.976Z,39.70
2018-02-01T21:25:24.871Z,44.95
2018-02-01T21:27:55.735Z,50.10
2018-02-01T21:30:26.602Z,45.10
2018-02-01T21:32:58.085Z,47.08
2018-02-01T21:35:29.376Z,36.46
2018-02-01T21:37:59.212Z,31.73
2018-02-01T21:40:29.986Z,33.58
2018-02-01T21:43:01.591Z,35.74
2018-02-01T21:45:32.591Z,39.03
2018-02-01T21:48:03.169Z,36.74
2018-02-01T21:50:34.013Z,32.53
2018-02-01T21:53:10.258Z,35.58
2018-02-01T21:55:44.331Z,39.03
2018-02-01T21:58:13.423Z,37.53
2018-02-01T22:00:42.651Z,44.62
2018-02-01T22:03:12.035Z,46.53
2018-02-01T22:05:41.401Z,41.00
2018-02-01T22:08:10.847Z,46.03
2018-02-01T22:10:41.326Z,40.14
2018-02-01T22:13:12.140Z,42.92
2018-02-01T22:15:42.923Z,42.75
2018-02-01T22:18:14.153Z,44.60
2018-02-01T22:20:44.462Z,65.12
2018-02-01T22:23:15.091Z,55.08
2018-02-01T22:25:45.579Z,43.42
2018-02-01T22:28:16.079Z,39.30
2018-02-01T22:30:46.942Z,42.08
2018-02-01T22:33:17.837Z,41.95
2018-02-01T22:35:48.610Z,31.67
2018-02-01T22:38:20.558Z,37.96
2018-02-01T22:40:51.264Z,36.00
2018-02-01T22:43:21.939Z,33.03
2018-02-01T22:45:52.795Z,30.77
2018-02-01T22:48:23.799Z,28.83
2018-02-01T22:50:54.779Z,31.30
2018-02-01T22:53:25.775Z,29.08
2018-02-01T22:55:57.488Z,31.08
2018-02-01T22:58:27.973Z,31.15
2018-02-01T23:00:58.819Z,29.40
2018-02-01T23:03:29.727Z,31.58
2018-02-01T23:06:01.019Z,29.64
2018-02-01T23:08:31.588Z,30.06
2018-02-01T23:11:02.143Z,32.90
2018-02-01T23:13:33.127Z,33.65
2018-02-01T23:16:03.562Z,34.06
2018-02-01T23:18:34.144Z,33.74
2018-02-01T23:21:04.957Z,34.72
2018-02-01T23:23:36.183Z,28.33
2018-02-01T23:26:06.917Z,39.50
2018-02-01T23:28:38.334Z,51.84
2018-02-01T23:31:08.875Z,62.08
2018-02-01T23:33:39.783Z,45.40
2018-02-01T23:36:10.621Z,36.63
2018-02-01T23:38:41.886Z,33.44
2018-02-01T23:41:12.729Z,32.05
2018-02-01T23:43:43.671Z,32.83
2018-02-01T23:46:15.161Z,30.82
2018-02-01T23:48:46.259Z,30.02
2018-02-01T23:51:16.943Z,30.08
2018-02-01T23:53:47.831Z,31.15
2018-02-01T23:56:18.678Z,34.38
2018-02-01T23:58:49.542Z,30.75
